Terminal Aerodrome Forecast
Issued by NWS

Home | Current Version | Previous Version | Text Only | Print | Product List | Glossary Off
Versions: 1 2 3 4 5 6 7 8 9 10 11 12 13 14

591
FTUS43 KABR 181732
TAFMBG
TAF
KMBG 181732Z 1818/1918 32011KT P6SM OVC015
      TEMPO 1818/1820 BKN008
     FM182000 35011KT P6SM OVC025
     FM182200 36011KT P6SM BKN050
     FM190200 03006KT P6SM SCT200
     FM190800 00000KT P6SM SCT250=

USA.gov is the U.S. government's official web portal to all federal, state and local government web resources and services.